Time;durP1;ratioP1;P1;durP2;ratioP2;P2;SDS_P1;SDS_P2;PMS_P1;PMS_P2;Temp;Humidity;BMP_temperature;BMP_pressure;BME280_temperature;BME280_humidity;BME280_pressure;Samples;Min_cycle;Max_cycle;Signal;HPM_P1;HPM_P2
2021/07/21 00:01:39;;;;;;;;;;;;;;;21.51;94.87;98263.28;1873310;76;20098;-62
2021/07/21 00:04:13;;;;;;;;;;;;;;;21.49;95.20;98260.33;1873464;76;20263;-61
2021/07/21 00:06:48;;;;;;;;;;;;;;;21.51;95.32;98263.75;1873398;76;20355;-62
2021/07/21 00:09:23;;;;;;;;;;;;;;;21.54;95.32;98254.41;1873523;76;20455;-62
2021/07/21 00:14:52;;;;;;;;;;;;;;;21.59;94.93;98247.18;1873352;76;20098;-63
2021/07/21 00:17:32;;;;;;;;;;;;;;;21.59;94.66;98246.72;1892800;76;20347;-64
2021/07/21 00:20:07;;;;;;;;;;;;;;;21.60;94.33;98252.81;1892790;76;20207;-63
2021/07/21 00:22:45;;;;;;;;;;;;;;;21.56;94.21;98248.17;1873336;76;20352;-63
2021/07/21 00:25:19;;;;;;;;;;;;;;;21.51;94.23;98249.30;1873495;76;20204;-63
2021/07/21 00:27:54;;;;;;;;;;;;;;;21.49;94.27;98255.08;1873461;76;20094;-62
2021/07/21 00:30:36;;;;;;;;;;;;;;;21.47;94.37;98255.14;1892722;76;20121;-63
2021/07/21 00:33:10;;;;;;;;;;;;;;;21.49;94.14;98260.33;1892773;76;20199;-62
2021/07/21 00:35:45;;;;;;;;;;;;;;;21.49;93.91;98255.08;1873489;76;20204;-62
2021/07/21 00:38:19;;;;;;;;;;;;;;;21.49;93.79;98255.92;1873465;76;20463;-62
2021/07/21 00:40:55;;;;;;;;;;;;;;;21.52;93.65;98254.94;1873353;76;20208;-63
2021/07/21 00:43:31;;;;;;;;;;;;;;;21.53;93.39;98255.34;1873243;76;20208;-62
2021/07/21 00:46:06;;;;;;;;;;;;;;;21.53;93.56;98254.03;1873493;76;20208;-62
2021/07/21 00:48:40;;;;;;;;;;;;;;;21.52;93.21;98251.00;1873507;76;20208;-62
2021/07/21 00:51:34;;;;;;;;;;;;;;;21.50;93.22;98255.45;1871807;75;20140;-62
2021/07/21 00:54:09;;;;;;;;;;;;;;;21.48;93.11;98252.08;1892786;76;20092;-62
2021/07/21 00:56:46;;;;;;;;;;;;;;;21.46;93.03;98237.70;1873426;76;20351;-63
2021/07/21 00:59:20;;;;;;;;;;;;;;;21.44;92.78;98234.28;1892807;76;20199;-62
2021/07/21 01:01:57;;;;;;;;;;;;;;;21.43;92.66;98237.38;1892810;76;20100;-62
2021/07/21 01:04:33;;;;;;;;;;;;;;;21.45;92.66;98235.53;1873420;76;20093;-63
2021/07/21 01:07:10;;;;;;;;;;;;;;;21.49;92.45;98230.14;1873370;76;20097;-62
2021/07/21 01:09:46;;;;;;;;;;;;;;;21.53;92.51;98233.03;1892761;76;20346;-61
2021/07/21 01:12:39;;;;;;;;;;;;;;;21.61;92.81;98236.16;1873419;76;20133;-61
2021/07/21 01:15:23;;;;;;;;;;;;;;;21.65;92.85;98237.27;1872552;76;20204;-62
2021/07/21 01:18:02;;;;;;;;;;;;;;;21.64;93.29;98233.37;1892814;76;20204;-63
2021/07/21 01:20:46;;;;;;;;;;;;;;;21.63;93.74;98231.22;1873452;76;20443;-64
2021/07/21 01:23:33;;;;;;;;;;;;;;;21.57;93.69;98228.86;1892765;76;20351;-62
2021/07/21 01:26:13;;;;;;;;;;;;;;;21.52;93.85;98233.47;1892782;76;20215;-62
2021/07/21 01:28:50;;;;;;;;;;;;;;;21.54;94.09;98229.47;1873497;76;20212;-63
2021/07/21 01:31:28;;;;;;;;;;;;;;;21.53;93.34;98225.16;1873499;76;20454;-62
2021/07/21 01:34:05;;;;;;;;;;;;;;;21.53;92.91;98231.72;1892802;76;20457;-63
2021/07/21 01:37:00;;;;;;;;;;;;;;;21.51;91.97;98225.68;1873478;76;20216;-63
2021/07/21 01:40:00;;;;;;;;;;;;;;;21.44;91.53;98219.38;1892777;76;20184;-63
2021/07/21 01:42:35;;;;;;;;;;;;;;;21.38;91.67;98222.72;1873492;76;20351;-62
2021/07/21 01:45:31;;;;;;;;;;;;;;;21.30;92.01;98228.31;1892779;76;20211;-62
2021/07/21 01:48:06;;;;;;;;;;;;;;;21.20;92.23;98226.55;1892796;76;20347;-61
2021/07/21 01:50:43;;;;;;;;;;;;;;;21.13;92.66;98222.95;1873478;76;20351;-63
2021/07/21 01:53:19;;;;;;;;;;;;;;;21.07;92.83;98222.77;1873316;76;20208;-62
2021/07/21 01:55:55;;;;;;;;;;;;;;;21.02;92.77;98222.11;1873410;76;20208;-62
2021/07/21 01:58:31;;;;;;;;;;;;;;;20.93;92.84;98216.78;1873423;76;20093;-62
2021/07/21 02:01:10;;;;;;;;;;;;;;;20.84;93.01;98215.89;1873504;76;20347;-63
2021/07/21 02:04:07;;;;;;;;;;;;;;;20.76;92.87;98215.34;1873443;76;20097;-62
2021/07/21 02:06:40;;;;;;;;;;;;;;;20.72;93.63;98222.95;1892756;76;20100;-62
2021/07/21 02:09:15;;;;;;;;;;;;;;;20.69;93.07;98220.47;1873316;76;20098;-62
2021/07/21 02:11:51;;;;;;;;;;;;;;;20.69;93.45;98220.47;1873482;76;20208;-62
2021/07/21 02:14:47;;;;;;;;;;;;;;;20.65;93.37;98225.44;1873335;76;20098;-61
2021/07/21 02:17:23;;;;;;;;;;;;;;;20.63;93.42;98220.71;1873327;76;20097;-62
2021/07/21 02:19:58;;;;;;;;;;;;;;;20.63;93.58;98223.33;1873416;76;20140;-63
2021/07/21 02:22:34;;;;;;;;;;;;;;;20.62;93.56;98226.88;1892789;76;20101;-63
2021/07/21 02:25:10;;;;;;;;;;;;;;;20.62;93.59;98232.13;1873512;76;20204;-62
2021/07/21 02:28:04;;;;;;;;;;;;;;;20.62;93.71;98232.13;1892770;76;20203;-63
2021/07/21 02:30:40;;;;;;;;;;;;;;;20.59;93.88;98231.33;1873438;76;20098;-63
2021/07/21 02:33:26;;;;;;;;;;;;;;;20.58;94.02;98236.19;1892783;76;20203;-62
2021/07/21 02:36:02;;;;;;;;;;;;;;;20.56;94.22;98239.33;1892785;76;20097;-63
2021/07/21 02:38:38;;;;;;;;;;;;;;;20.53;94.47;98239.43;1873439;76;20362;-62
2021/07/21 02:41:14;;;;;;;;;;;;;;;20.54;94.57;98238.53;1873343;76;20093;-63
2021/07/21 02:44:08;;;;;;;;;;;;;;;20.52;94.58;98236.86;1873510;76;20204;-62
2021/07/21 02:46:43;;;;;;;;;;;;;;;20.51;94.95;98245.65;1873304;76;20204;-63
2021/07/21 02:49:20;;;;;;;;;;;;;;;20.47;94.98;98247.52;1873508;76;20094;-64
2021/07/21 02:52:20;;;;;;;;;;;;;;;20.43;95.26;98247.70;1892770;76;20354;-61
2021/07/21 02:55:13;;;;;;;;;;;;;;;20.36;95.40;98247.12;1873466;76;20204;-63
2021/07/21 02:57:50;;;;;;;;;;;;;;;20.32;95.42;98257.31;1892773;76;20203;-63
2021/07/21 03:00:47;;;;;;;;;;;;;;;20.28;95.54;98259.68;1873493;76;20102;-63
2021/07/21 03:03:28;;;;;;;;;;;;;;;20.22;94.85;98257.28;1872550;76;20212;-62
2021/07/21 03:06:07;;;;;;;;;;;;;;;20.14;95.18;98255.81;1837883;77;20452;-62
2021/07/21 03:09:08;;;;;;;;;;;;;;;20.06;95.76;98260.50;1873480;76;20212;-63
2021/07/21 03:12:07;;;;;;;;;;;;;;;20.00;96.15;98264.69;1873389;76;20136;-62
2021/07/21 03:14:44;;;;;;;;;;;;;;;19.94;96.48;98260.97;1892781;76;20211;-63
2021/07/21 03:17:19;;;;;;;;;;;;;;;19.88;96.18;98259.45;1873479;76;20208;-62
2021/07/21 03:19:56;;;;;;;;;;;;;;;19.83;96.57;98263.16;1873313;76;20097;-63
2021/07/21 03:22:32;;;;;;;;;;;;;;;19.75;97.02;98262.14;1892804;76;20093;-66
2021/07/21 03:25:09;;;;;;;;;;;;;;;19.69;97.44;98256.69;1873430;76;20177;-64
2021/07/21 03:27:44;;;;;;;;;;;;;;;19.61;97.88;98274.38;1873447;76;20093;-63
2021/07/21 03:30:19;;;;;;;;;;;;;;;19.56;98.25;98267.61;1892911;76;20097;-64
2021/07/21 03:32:55;;;;;;;;;;;;;;;19.50;98.67;98272.63;1873409;76;20093;-62
2021/07/21 03:35:31;;;;;;;;;;;;;;;19.45;99.06;98275.86;1853611;77;20206;-63
2021/07/21 03:38:06;;;;;;;;;;;;;;;19.41;99.47;98280.79;1892892;76;20350;-62
2021/07/21 03:40:42;;;;;;;;;;;;;;;19.38;99.74;98279.59;1873458;76;20212;-64
2021/07/21 03:43:19;;;;;;;;;;;;;;;19.36;99.93;98286.64;1873399;76;20098;-62
2021/07/21 03:45:56;;;;;;;;;;;;;;;19.36;100.00;98294.49;1892903;76;20454;-62
2021/07/21 03:48:31;;;;;;;;;;;;;;;19.34;100.00;98295.88;1873501;76;20208;-64
2021/07/21 03:51:06;;;;;;;;;;;;;;;19.35;100.00;98298.03;1873462;76;20344;-63
2021/07/21 03:53:41;;;;;;;;;;;;;;;19.37;100.00;98290.98;1873491;76;20302;-63
2021/07/21 03:56:17;;;;;;;;;;;;;;;19.39;100.00;98303.11;1873542;76;20098;-64
2021/07/21 03:58:52;;;;;;;;;;;;;;;19.41;100.00;98300.41;1892797;76;20450;-63
2021/07/21 04:01:27;;;;;;;;;;;;;;;19.39;100.00;98298.33;1892778;76;20450;-63
2021/07/21 04:04:04;;;;;;;;;;;;;;;19.38;100.00;98303.99;1873466;76;20351;-63
2021/07/21 04:06:39;;;;;;;;;;;;;;;19.41;100.00;98301.72;1873445;76;20216;-62
2021/07/21 04:09:18;;;;;;;;;;;;;;;19.42;100.00;98302.98;1892725;76;20101;-62
2021/07/21 04:11:56;;;;;;;;;;;;;;;19.42;100.00;98299.53;1873476;76;20172;-63
2021/07/21 04:14:31;;;;;;;;;;;;;;;19.41;100.00;98296.49;1873539;76;20217;-63
2021/07/21 04:17:06;;;;;;;;;;;;;;;19.40;100.00;98299.56;1873456;76;20216;-63
2021/07/21 04:19:42;;;;;;;;;;;;;;;19.41;100.00;98294.75;1873482;76;20208;-63
2021/07/21 04:22:20;;;;;;;;;;;;;;;19.44;100.00;98292.48;1892760;76;20101;-62
2021/07/21 04:24:57;;;;;;;;;;;;;;;19.47;100.00;98293.67;1873466;76;20212;-64
2021/07/21 04:27:33;;;;;;;;;;;;;;;19.47;100.00;98291.91;1892789;76;20355;-63
2021/07/21 04:30:09;;;;;;;;;;;;;;;19.48;100.00;98298.83;1873491;76;20212;-64
2021/07/21 04:32:50;;;;;;;;;;;;;;;19.50;100.00;98302.72;1892744;76;20211;-62
2021/07/21 04:35:28;;;;;;;;;;;;;;;19.50;100.00;98305.33;1837877;77;20100;-64
2021/07/21 04:38:04;;;;;;;;;;;;;;;19.52;100.00;98305.68;1873464;76;20454;-63
2021/07/21 04:40:43;;;;;;;;;;;;;;;19.57;100.00;98311.22;1873327;76;20101;-63
2021/07/21 04:43:17;;;;;;;;;;;;;;;19.58;100.00;98311.60;1873483;76;20208;-63
2021/07/21 04:45:52;;;;;;;;;;;;;;;19.60;100.00;98314.56;1873434;76;20347;-63
2021/07/21 04:48:28;;;;;;;;;;;;;;;19.60;100.00;98319.80;1873318;76;20093;-64
2021/07/21 04:51:05;;;;;;;;;;;;;;;19.62;100.00;98314.06;1892753;76;20096;-62
2021/07/21 04:53:39;;;;;;;;;;;;;;;19.64;100.00;98308.32;1892806;76;20212;-62
2021/07/21 04:56:15;;;;;;;;;;;;;;;19.67;100.00;98311.31;1873231;76;20097;-63
2021/07/21 04:58:50;;;;;;;;;;;;;;;19.69;100.00;98312.09;1892774;76;20096;-62
2021/07/21 05:01:25;;;;;;;;;;;;;;;19.70;100.00;98315.97;1873499;76;20212;-63
2021/07/21 05:04:06;;;;;;;;;;;;;;;19.73;100.00;98310.61;1872562;76;20212;-62
2021/07/21 05:06:42;;;;;;;;;;;;;;;19.76;100.00;98311.42;1873300;76;20097;-63
2021/07/21 05:09:16;;;;;;;;;;;;;;;19.83;100.00;98316.84;1873459;76;20487;-63
2021/07/21 05:11:51;;;;;;;;;;;;;;;19.89;100.00;98312.66;1873434;76;20451;-64
2021/07/21 05:14:25;;;;;;;;;;;;;;;19.95;99.94;98323.78;1873447;76;20381;-63
2021/07/21 05:17:00;;;;;;;;;;;;;;;20.00;98.88;98321.00;1873363;76;20208;-63
2021/07/21 05:19:36;;;;;;;;;;;;;;;20.05;97.92;98315.55;1892715;76;20211;-63
2021/07/21 05:22:10;;;;;;;;;;;;;;;20.11;97.44;98316.19;1892758;76;20096;-63
2021/07/21 05:24:45;;;;;;;;;;;;;;;20.19;96.81;98317.67;1892710;76;20359;-64
2021/07/21 05:27:20;;;;;;;;;;;;;;;20.26;96.96;98320.45;1873441;76;20208;-64
2021/07/21 05:29:54;;;;;;;;;;;;;;;20.33;96.11;98313.61;1873493;76;20212;-64
2021/07/21 05:32:28;;;;;;;;;;;;;;;20.42;95.77;98313.69;1873445;76;20216;-64
2021/07/21 05:35:04;;;;;;;;;;;;;;;20.54;95.90;98309.73;1892739;76;20097;-64
2021/07/21 05:37:39;;;;;;;;;;;;;;;20.65;95.45;98314.58;1873290;76;20094;-64
2021/07/21 05:40:14;;;;;;;;;;;;;;;20.75;95.18;98309.36;1873416;76;20113;-63
2021/07/21 05:42:49;;;;;;;;;;;;;;;20.87;94.32;98304.92;1873340;76;20094;-64
2021/07/21 05:45:25;;;;;;;;;;;;;;;20.98;92.84;98311.88;1892705;76;20175;-64
2021/07/21 05:48:00;;;;;;;;;;;;;;;21.13;92.75;98309.54;1873473;76;20208;-64
2021/07/21 05:51:08;;;;;;;;;;;;;;;21.25;92.55;98306.39;1892684;76;20351;-63
2021/07/21 05:54:05;;;;;;;;;;;;;;;21.38;92.31;98314.16;1873308;76;20102;-65
2021/07/21 05:56:58;;;;;;;;;;;;;;;21.46;91.66;98308.11;1892755;76;20461;-64
2021/07/21 05:59:33;;;;;;;;;;;;;;;21.55;91.19;98304.68;1892804;76;20097;-64
2021/07/21 06:02:08;;;;;;;;;;;;;;;21.60;90.58;98316.71;1873478;76;20212;-65
2021/07/21 06:05:04;;;;;;;;;;;;;;;21.61;90.01;98313.15;1837680;77;20203;-64
2021/07/21 06:07:39;;;;;;;;;;;;;;;21.57;89.47;98309.41;1873386;76;20094;-64
2021/07/21 06:10:14;;;;;;;;;;;;;;;21.64;89.76;98312.16;1892762;76;20466;-64
2021/07/21 06:12:48;;;;;;;;;;;;;;;21.81;89.33;98315.36;1873463;76;20344;-64
2021/07/21 06:15:27;;;;;;;;;;;;;;;22.03;88.18;98313.46;1892760;76;20212;-63
2021/07/21 06:17:59;;;;;;;;;;;;;;;22.17;87.37;98323.32;1873431;76;20212;-64
2021/07/21 06:20:34;;;;;;;;;;;;;;;22.21;86.73;98324.05;1873479;76;20208;-63
2021/07/21 06:23:30;;;;;;;;;;;;;;;22.32;86.05;98329.20;1892749;76;20211;-63
2021/07/21 06:26:12;;;;;;;;;;;;;;;22.56;85.10;98331.59;1872531;76;20347;-65
2021/07/21 06:28:49;;;;;;;;;;;;;;;23.16;84.10;98324.75;1873394;76;20098;-64
2021/07/21 06:31:44;;;;;;;;;;;;;;;24.51;79.16;98326.00;1873241;76;20097;-64
2021/07/21 06:34:38;;;;;;;;;;;;;;;25.15;76.43;98334.17;1873585;76;20097;-63
2021/07/21 06:37:14;;;;;;;;;;;;;;;25.50;74.34;98336.55;1873191;76;20097;-65
2021/07/21 06:39:48;;;;;;;;;;;;;;;25.49;72.17;98333.52;1873384;76;20097;-65
2021/07/21 06:42:42;;;;;;;;;;;;;;;25.23;72.61;98335.91;1873028;75;20274;-65
2021/07/21 06:45:17;;;;;;;;;;;;;;;25.03;73.22;98340.16;1892856;76;20207;-64
2021/07/21 06:47:52;;;;;;;;;;;;;;;25.31;72.70;98340.74;1873309;76;20355;-63
2021/07/21 06:50:27;;;;;;;;;;;;;;;25.40;72.65;98338.05;1873447;76;20208;-64
2021/07/21 06:53:02;;;;;;;;;;;;;;;25.36;72.02;98329.91;1873486;76;20449;-66
2021/07/21 06:55:59;;;;;;;;;;;;;;;25.03;72.01;98332.23;1865362;75;20394;-65
2021/07/21 06:58:33;;;;;;;;;;;;;;;24.72;73.34;98343.72;1873557;76;20209;-64
2021/07/21 07:01:07;;;;;;;;;;;;;;;24.40;72.65;98337.97;1892850;76;20207;-64
2021/07/21 07:03:42;;;;;;;;;;;;;;;24.09;73.90;98339.25;1873471;76;20212;-64
2021/07/21 07:06:17;;;;;;;;;;;;;;;23.99;74.16;98346.35;1873422;76;20212;-63
2021/07/21 07:08:51;;;;;;;;;;;;;;;24.11;73.67;98342.66;1873555;76;20212;-66
2021/07/21 07:11:26;;;;;;;;;;;;;;;24.54;72.21;98344.28;1892741;76;20199;-64
2021/07/21 07:14:00;;;;;;;;;;;;;;;25.09;70.50;98343.30;1873421;76;20451;-64
2021/07/21 07:16:35;;;;;;;;;;;;;;;25.17;68.81;98342.89;1873372;76;20347;-65
2021/07/21 07:19:29;;;;;;;;;;;;;;;25.12;68.66;98340.48;1869294;76;20278;-64
2021/07/21 07:22:05;;;;;;;;;;;;;;;24.89;69.56;98355.48;1873394;76;20136;-64
2021/07/21 07:24:39;;;;;;;;;;;;;;;25.07;69.21;98360.18;1873489;76;20216;-63
2021/07/21 07:27:14;;;;;;;;;;;;;;;25.48;67.51;98351.64;1892907;76;20096;-64
2021/07/21 07:29:48;;;;;;;;;;;;;;;25.64;66.99;98366.09;1873434;76;20212;-63
2021/07/21 07:32:23;;;;;;;;;;;;;;;25.60;65.91;98356.67;1873441;76;20208;-64
2021/07/21 07:34:57;;;;;;;;;;;;;;;25.56;66.02;98359.47;1892773;76;20215;-63
2021/07/21 07:37:32;;;;;;;;;;;;;;;25.52;64.55;98354.48;1892774;76;20458;-63
2021/07/21 07:40:08;;;;;;;;;;;;;;;25.34;65.80;98359.92;1892729;76;20187;-64
2021/07/21 07:42:42;;;;;;;;;;;;;;;25.12;66.09;98353.69;1873569;76;20212;-64
2021/07/21 07:45:37;;;;;;;;;;;;;;;25.00;66.85;98356.19;1873351;76;20188;-63
2021/07/21 07:48:12;;;;;;;;;;;;;;;24.98;67.45;98363.34;1873474;76;20204;-64
2021/07/21 07:50:49;;;;;;;;;;;;;;;24.96;67.17;98360.80;1892751;76;20204;-64
2021/07/21 07:53:31;;;;;;;;;;;;;;;24.89;67.48;98366.05;1892691;76;20117;-63
2021/07/21 07:56:06;;;;;;;;;;;;;;;24.97;67.48;98361.64;1892773;76;20097;-63
2021/07/21 07:58:40;;;;;;;;;;;;;;;25.10;67.54;98362.63;1873469;76;20355;-65
2021/07/21 08:01:15;;;;;;;;;;;;;;;25.25;66.99;98356.48;1873453;76;20451;-63
2021/07/21 08:03:49;;;;;;;;;;;;;;;25.61;65.21;98361.00;1892752;76;20096;-64
2021/07/21 08:06:24;;;;;;;;;;;;;;;25.75;63.75;98356.59;1873452;76;20215;-64
2021/07/21 08:08:58;;;;;;;;;;;;;;;26.23;61.35;98367.36;1873406;76;20212;-64
2021/07/21 08:11:33;;;;;;;;;;;;;;;27.00;59.92;98372.13;1873603;76;20205;-63
2021/07/21 08:14:08;;;;;;;;;;;;;;;27.30;56.37;98371.08;1873291;76;20101;-63
2021/07/21 08:16:43;;;;;;;;;;;;;;;27.45;56.32;98375.34;1873451;76;20212;-64
2021/07/21 08:19:18;;;;;;;;;;;;;;;27.42;56.23;98370.23;1873480;76;20204;-65
2021/07/21 08:22:13;;;;;;;;;;;;;;;27.52;55.55;98377.57;1873391;76;20306;-63
2021/07/21 08:24:48;;;;;;;;;;;;;;;27.16;55.95;98384.36;1873485;76;20204;-65
2021/07/21 08:27:22;;;;;;;;;;;;;;;26.76;57.12;98389.60;1837852;77;20206;-64
2021/07/21 08:29:57;;;;;;;;;;;;;;;26.40;58.38;98393.61;1837812;77;20469;-64
2021/07/21 08:32:32;;;;;;;;;;;;;;;26.09;59.26;98386.75;1873446;76;20212;-64
2021/07/21 08:35:09;;;;;;;;;;;;;;;25.72;60.58;98387.17;1892895;76;20092;-64
2021/07/21 08:37:45;;;;;;;;;;;;;;;25.58;60.70;98381.85;1873200;76;20101;-65
2021/07/21 08:40:21;;;;;;;;;;;;;;;25.29;61.82;98393.67;1892880;76;20207;-63
2021/07/21 08:42:57;;;;;;;;;;;;;;;25.26;62.50;98392.52;1873417;76;20204;-64
2021/07/21 08:45:32;;;;;;;;;;;;;;;25.42;62.83;98391.64;1873561;76;20204;-62
2021/07/21 08:48:06;;;;;;;;;;;;;;;25.60;62.61;98394.98;1892760;76;20457;-63
2021/07/21 08:50:44;;;;;;;;;;;;;;;25.83;61.21;98382.55;1873418;76;20455;-65
2021/07/21 08:53:19;;;;;;;;;;;;;;;26.31;58.69;98389.77;1873437;76;20201;-64
2021/07/21 08:55:55;;;;;;;;;;;;;;;26.34;56.37;98392.21;1873405;76;20343;-64
2021/07/21 08:58:30;;;;;;;;;;;;;;;26.09;57.75;98382.78;1892750;76;20100;-63
2021/07/21 09:01:05;;;;;;;;;;;;;;;25.81;57.61;98391.04;1873456;76;20212;-64
2021/07/21 09:03:58;;;;;;;;;;;;;;;25.69;58.37;98394.42;1873446;76;20204;-65
2021/07/21 09:06:34;;;;;;;;;;;;;;;25.69;58.57;98404.98;1892752;76;20097;-63
2021/07/21 09:09:09;;;;;;;;;;;;;;;25.76;58.46;98397.92;1873464;76;20279;-64
2021/07/21 09:11:45;;;;;;;;;;;;;;;25.71;57.46;98390.74;1873305;76;20208;-63
2021/07/21 09:14:26;;;;;;;;;;;;;;;25.49;58.20;98395.16;1872696;76;20447;-64
2021/07/21 09:17:15;;;;;;;;;;;;;;;25.49;58.16;98399.12;1873373;76;20098;-65
2021/07/21 09:19:50;;;;;;;;;;;;;;;25.62;58.46;98397.92;1873454;76;20216;-64
2021/07/21 09:22:38;;;;;;;;;;;;;;;25.76;58.57;98393.95;1892752;76;20211;-63
2021/07/21 09:25:18;;;;;;;;;;;;;;;26.01;58.42;98393.83;1892713;76;20101;-63
2021/07/21 09:27:57;;;;;;;;;;;;;;;26.27;58.76;98399.30;1873349;76;20093;-63
2021/07/21 09:30:34;;;;;;;;;;;;;;;26.70;57.76;98397.95;1837823;77;20103;-63
2021/07/21 09:33:13;;;;;;;;;;;;;;;26.92;56.91;98400.92;1873253;76;20101;-64
2021/07/21 09:35:52;;;;;;;;;;;;;;;26.95;57.04;98408.66;1892754;76;20097;-63
2021/07/21 09:38:29;;;;;;;;;;;;;;;26.89;57.04;98397.60;1873494;76;20220;-65
2021/07/21 09:41:04;;;;;;;;;;;;;;;26.62;56.98;98393.99;1873626;76;20208;-62
2021/07/21 09:44:02;;;;;;;;;;;;;;;26.31;58.17;98386.27;1892820;76;20207;-63
2021/07/21 09:47:13;;;;;;;;;;;;;;;26.25;58.46;98405.16;1885646;75;20490;-64
2021/07/21 09:49:49;;;;;;;;;;;;;;;26.13;58.50;98393.08;1892778;76;20097;-63
2021/07/21 09:52:48;;;;;;;;;;;;;;;26.04;59.18;98381.73;1892706;76;20101;-63
2021/07/21 09:55:44;;;;;;;;;;;;;;;26.08;59.93;98385.03;1873390;76;20459;-63
2021/07/21 09:58:38;;;;;;;;;;;;;;;25.95;59.13;98388.90;1892690;76;20100;-65
2021/07/21 10:01:12;;;;;;;;;;;;;;;25.66;59.44;98380.92;1864288;76;20206;-63
2021/07/21 10:03:47;;;;;;;;;;;;;;;25.52;60.56;98380.91;1892729;76;20211;-63
2021/07/21 10:06:22;;;;;;;;;;;;;;;25.43;59.95;98353.70;1873390;76;20098;-62
2021/07/21 10:09:17;;;;;;;;;;;;;;;25.35;61.57;98375.30;1873405;76;20371;-64
2021/07/21 10:11:53;;;;;;;;;;;;;;;25.28;61.98;98372.15;1892854;76;20100;-64
2021/07/21 10:14:27;;;;;;;;;;;;;;;25.33;61.74;98368.77;1873572;76;20201;-64
2021/07/21 10:17:02;;;;;;;;;;;;;;;25.39;61.97;98366.26;1873491;76;20208;-64
2021/07/21 10:19:37;;;;;;;;;;;;;;;25.38;60.44;98362.37;1892818;76;20093;-65
2021/07/21 10:22:30;;;;;;;;;;;;;;;25.10;60.79;98377.16;1873476;76;20212;-64
2021/07/21 10:25:06;;;;;;;;;;;;;;;25.13;60.65;98370.37;1873398;76;20098;-62
2021/07/21 10:27:40;;;;;;;;;;;;;;;25.21;60.11;98364.67;1892776;76;20207;-64
2021/07/21 10:30:37;;;;;;;;;;;;;;;25.21;59.23;98361.56;1873434;76;20147;-63
2021/07/21 10:33:12;;;;;;;;;;;;;;;25.24;60.59;98360.08;1873378;76;20093;-63
2021/07/21 10:35:48;;;;;;;;;;;;;;;25.37;59.70;98367.29;1873215;76;20101;-63
2021/07/21 10:38:23;;;;;;;;;;;;;;;25.42;60.11;98363.91;1873461;76;20208;-63
2021/07/21 10:40:58;;;;;;;;;;;;;;;25.43;60.77;98365.59;1892781;76;20092;-66
2021/07/21 10:43:53;;;;;;;;;;;;;;;25.41;60.06;98359.55;1892699;76;20354;-63
2021/07/21 10:46:37;;;;;;;;;;;;;;;25.25;60.24;98360.45;1892757;76;20207;-64
2021/07/21 10:49:36;;;;;;;;;;;;;;;25.29;60.30;98363.30;1873465;76;20208;-65
2021/07/21 11:01:26;;;;;;;;;;;;;;;25.53;58.53;98365.42;1879186;75;20486;-64
2021/07/21 11:04:02;;;;;;;;;;;;;;;25.66;57.56;98370.83;1873438;76;20184;-66
2021/07/21 11:07:02;;;;;;;;;;;;;;;25.78;56.48;98366.12;1872649;76;20302;-64
2021/07/21 11:09:43;;;;;;;;;;;;;;;25.76;55.76;98352.98;1873247;76;20101;-65
2021/07/21 11:12:35;;;;;;;;;;;;;;;25.80;56.70;98361.60;1873459;76;20212;-63
2021/07/21 11:15:41;;;;;;;;;;;;;;;25.83;55.59;98364.53;1892687;76;20120;-61
2021/07/21 11:18:25;;;;;;;;;;;;;;;25.99;54.76;98370.59;1873446;76;20097;-65
2021/07/21 11:21:20;;;;;;;;;;;;;;;26.03;54.90;98376.53;1875186;75;20259;-64
2021/07/21 11:23:59;;;;;;;;;;;;;;;25.91;55.38;98359.64;1873434;76;20204;-65
2021/07/21 11:26:39;;;;;;;;;;;;;;;25.96;55.84;98372.95;1873484;76;20768;-63
2021/07/21 11:29:35;;;;;;;;;;;;;;;26.07;55.12;98372.28;1892740;76;20469;-63
2021/07/21 11:32:18;;;;;;;;;;;;;;;25.91;54.63;98374.19;1873497;76;20208;-66
2021/07/21 11:35:38;;;;;;;;;;;;;;;25.75;55.21;98371.60;1873412;76;20208;-63
2021/07/21 11:38:20;;;;;;;;;;;;;;;25.59;56.29;98386.66;1892757;76;20207;-62
2021/07/21 11:40:55;;;;;;;;;;;;;;;25.40;56.21;98363.14;1892767;76;20092;-63
2021/07/21 11:43:31;;;;;;;;;;;;;;;25.15;56.37;98380.38;1892774;76;20092;-65
2021/07/21 11:46:08;;;;;;;;;;;;;;;24.92;57.61;98392.27;1892749;76;20101;-62
2021/07/21 11:48:44;;;;;;;;;;;;;;;24.80;57.24;98391.16;1873469;76;20094;-63
2021/07/21 11:51:19;;;;;;;;;;;;;;;24.80;57.63;98388.98;1873233;76;20102;-64
2021/07/21 11:53:55;;;;;;;;;;;;;;;24.89;57.35;98397.25;1873368;76;20097;-63
2021/07/21 11:56:50;;;;;;;;;;;;;;;25.00;56.03;98390.50;1873352;76;20356;-65
2021/07/21 11:59:34;;;;;;;;;;;;;;;25.06;56.53;98384.86;1873238;76;20093;-63
2021/07/21 12:02:30;;;;;;;;;;;;;;;25.10;55.10;98385.08;1892765;76;20346;-64
2021/07/21 12:05:08;;;;;;;;;;;;;;;25.08;54.92;98392.23;1892769;76;20204;-63
2021/07/21 12:08:06;;;;;;;;;;;;;;;25.12;54.01;98389.33;1873173;76;20147;-64
2021/07/21 12:10:43;;;;;;;;;;;;;;;25.10;52.34;98397.80;1892794;76;20207;-66
2021/07/21 12:13:20;;;;;;;;;;;;;;;25.10;52.19;98392.52;1853787;77;20099;-64
2021/07/21 12:15:59;;;;;;;;;;;;;;;25.13;51.38;98399.41;1873308;76;20093;-64
2021/07/21 12:19:00;;;;;;;;;;;;;;;25.19;50.14;98401.75;1873468;76;20097;-64
2021/07/21 12:22:14;;;;;;;;;;;;;;;25.22;49.15;98410.81;1892714;76;20207;-64
2021/07/21 12:24:58;;;;;;;;;;;;;;;25.28;49.54;98403.84;1892761;76;20246;-64
2021/07/21 12:27:38;;;;;;;;;;;;;;;25.37;48.71;98406.91;1873393;76;20344;-63
2021/07/21 12:30:16;;;;;;;;;;;;;;;25.44;48.70;98405.59;1892853;76;20215;-64
2021/07/21 12:32:52;;;;;;;;;;;;;;;25.41;48.00;98416.34;1873489;76;20347;-64
2021/07/21 12:35:45;;;;;;;;;;;;;;;25.46;48.36;98410.31;1873406;76;20098;-63
2021/07/21 12:38:40;;;;;;;;;;;;;;;25.65;48.53;98413.59;1873439;76;20351;-63
2021/07/21 12:41:18;;;;;;;;;;;;;;;25.75;48.87;98420.50;1873458;76;20220;-63
2021/07/21 12:43:52;;;;;;;;;;;;;;;25.84;48.79;98415.13;1892774;76;20096;-63
2021/07/21 12:46:27;;;;;;;;;;;;;;;25.77;48.43;98423.87;1873453;76;20094;-65
2021/07/21 12:49:02;;;;;;;;;;;;;;;25.59;48.58;98424.50;1873375;76;20097;-64
2021/07/21 12:51:37;;;;;;;;;;;;;;;25.43;47.97;98418.43;1873554;76;20093;-64
2021/07/21 12:54:33;;;;;;;;;;;;;;;25.36;47.79;98418.40;1873381;76;20204;-64
2021/07/21 12:57:11;;;;;;;;;;;;;;;25.38;47.21;98427.09;1873452;76;20459;-64
2021/07/21 13:00:24;;;;;;;;;;;;;;;25.50;47.14;98428.55;1873347;76;20097;-63
2021/07/21 13:03:13;;;;;;;;;;;;;;;25.67;46.72;98434.17;1892763;76;20097;-63
2021/07/21 13:05:55;;;;;;;;;;;;;;;25.77;46.66;98434.45;1892740;76;20097;-64
2021/07/21 13:08:34;;;;;;;;;;;;;;;25.84;46.83;98430.98;1892772;76;20093;-62
2021/07/21 13:11:28;;;;;;;;;;;;;;;25.88;46.86;98437.35;1873413;76;20101;-63
2021/07/21 13:14:04;;;;;;;;;;;;;;;25.89;46.96;98430.27;1873394;76;20093;-63
2021/07/21 13:16:38;;;;;;;;;;;;;;;25.90;47.09;98430.19;1873474;76;20208;-63
2021/07/21 13:19:13;;;;;;;;;;;;;;;25.85;47.67;98432.25;1873442;76;20097;-64
2021/07/21 13:22:21;;;;;;;;;;;;;;;25.83;47.71;98425.33;1873275;76;20352;-65
2021/07/21 13:24:57;;;;;;;;;;;;;;;25.82;47.71;98427.09;1873341;76;20102;-64
2021/07/21 13:27:52;;;;;;;;;;;;;;;25.78;47.09;98425.13;1879241;75;20136;-62
2021/07/21 13:30:27;;;;;;;;;;;;;;;25.76;46.75;98419.06;1892791;76;20350;-64
2021/07/21 13:33:10;;;;;;;;;;;;;;;25.75;46.75;98418.70;1892728;76;20207;-64
2021/07/21 13:36:00;;;;;;;;;;;;;;;25.77;47.22;98424.75;1892765;76;20347;-64
2021/07/21 13:38:37;;;;;;;;;;;;;;;25.85;45.71;98432.70;1873274;76;20097;-63
2021/07/21 13:41:35;;;;;;;;;;;;;;;25.90;46.32;98431.95;1873438;76;20216;-65
2021/07/21 13:44:15;;;;;;;;;;;;;;;25.95;46.06;98437.37;1873484;76;20212;-65
2021/07/21 13:46:55;;;;;;;;;;;;;;;25.97;46.08;98430.17;1873472;76;20097;-65
2021/07/21 13:49:51;;;;;;;;;;;;;;;26.06;45.46;98431.42;1892745;76;20100;-63
2021/07/21 13:53:00;;;;;;;;;;;;;;;26.18;44.43;98436.41;1873374;76;20097;-64
2021/07/21 13:55:35;;;;;;;;;;;;;;;26.23;43.69;98437.02;1892749;76;20093;-62
2021/07/21 13:58:11;;;;;;;;;;;;;;;26.31;43.92;98433.89;1892807;76;20208;-64
2021/07/21 14:01:05;;;;;;;;;;;;;;;26.37;44.19;98434.83;1873463;76;20212;-64
2021/07/21 14:03:47;;;;;;;;;;;;;;;26.40;43.96;98426.69;1873392;76;20347;-65
2021/07/21 14:06:41;;;;;;;;;;;;;;;26.38;43.25;98439.16;1873428;76;20212;-63